1972 Severe Tropical Cyclone EMILY(NEW C (1972088S11158)


IBTrACS version v04r00. Visit IBTrACS website for data access.
Please direct all questions to the IBTrACS Q and A forum

Storm track - Intensity - Wind Radii - Intensity Data - Source Data - All data

Summary Information

Storm ID 1972088S11158
Start Mar 27 23Z
Landfall Apr 2 05Z
Max Intensity 105 kt (Mar 30 12Z), 942 mb (Mar 30 15Z)
End Apr 4 00Z
ATCF IDs ,SH271972
Track status Best track data.

Storm track plot

Map of storm track

Intensity plots

Map of storm track

Radial wind information

No radial wind information for this storm


Position and Intensity Table

BASIN ISO_TIME_________ NATURE LAT LON WMO PRES USA WIND BOM PRES WELLINGTON WIND WELLINGTON PRES DS824 WIND DS824 PRES TD9636 WIND NEUMANN WIND NEUMANN PRES
degrees north degrees east mb kts mb kts mb kts mb kts kts mb
SP 1972-03-27 23:00:00 NR -11.00 157.50 1000 1000 30
SP 1972-03-28 00:00:00 TS -11.09 157.61 30 999 30 1000 29 30 1000
SP 02:00:00 TS -11.30 157.80 999 28 999 31 999 28 30 999
SP 03:00:00 TS -11.41 157.89 27 998 32 999 28 30 999
SP 05:00:00 TS -11.61 158.06 998 25 998 34 998 27 30 999
SP 06:00:00 TS -11.70 158.15 25 998 35 998 27 30 999
SP 08:00:00 TS -11.87 158.31 999 25 999 33 998 26 30 999
SP 09:00:00 TS -11.95 158.39 25 999 32 998 25 30 999
SP 11:00:00 TS -12.07 158.54 999 25 999 30 998 25 30 999
SP 12:00:00 TS -12.12 158.61 25 998 30 999 24 30 999
SP 14:00:00 TS -12.20 158.70 997 23 997 33 997 23 33 997
SP 15:00:00 TS -12.23 158.74 22 996 35 997 23 35 996
SP 17:00:00 TS -12.29 158.80 995 20 995 38 995 22 38 994
SP 18:00:00 TS -12.32 158.83 20 994 40 995 22 40 994
SP 20:00:00 TS -12.38 158.91 992 20 992 41 993 21 41 992
SP 21:00:00 TS -12.41 158.94 20 991 42 992 20 42 992
SP 23:00:00 TS -12.47 159.01 990 20 990 44 990 20 44 990
SP 1972-03-29 00:00:00 TS -12.49 159.04 20 988 40 990 45 990 20 45 990
SP 02:00:00 TS -12.57 159.09 985 20 985 42 988 50 986 20 50 986
SP 03:00:00 TS -12.61 159.11 20 983 43 987 52 985 20 52 985
SP 05:00:00 TS -12.71 159.14 980 20 980 46 985 57 981 20 57 981
SP 06:00:00 TS -12.76 159.16 20 978 47 985 60 980 20 60 980
SP 08:00:00 TS -12.83 159.17 975 20 975 50 983 63 976 20 65 976
SP 09:00:00 TS -12.86 159.18 20 973 51 982 65 975 20 67 975
SP 11:00:00 TS -12.93 159.20 970 20 970 53 980 68 971 20 72 971
SP 12:00:00 TS -12.97 159.20 20 968 55 980 70 970 20 75 970
SP 14:00:00 TS -13.03 159.22 965 21 965 56 978 75 966 22 78 966
SP 15:00:00 TS -13.06 159.22 22 963 57 977 77 965 23 80 965
SP 17:00:00 TS -13.12 159.22 960 24 960 59 975 82 961 25 83 962
SP 18:00:00 TS -13.16 159.22 25 958 60 975 85 960 25 85 961
SP 20:00:00 TS -13.25 159.22 956 26 956 61 973 86 957 27 88 958
SP 21:00:00 TS -13.31 159.21 27 955 62 972 87 956 28 90 957
SP 23:00:00 TS -13.45 159.19 953 29 953 64 970 89 954 30 93 954
SP 1972-03-30 00:00:00 TS -13.54 159.16 30 952 65 970 90 953 30 95 953
SP 02:00:00 TS -13.76 159.10 950 31 950 67 967 91 951 32 96 951
SP 03:00:00 TS -13.88 159.06 32 949 68 966 92 950 33 97 950
SP 05:00:00 TS -14.15 158.97 948 34 948 71 963 94 948 35 99 948
SP 06:00:00 TS -14.29 158.93 35 947 72 962 95 948 35 100 948
SP 08:00:00 TS -14.56 158.83 946 36 946 75 959 96 946 37 101 946
SP 09:00:00 TS -14.70 158.78 37 945 76 958 97 946 38 102 946
SP 11:00:00 TS -14.97 158.69 944 39 944 78 956 99 944 40 104 944
SP 12:00:00 TS -15.11 158.65 40 943 80 955 100 944 39 105 944
SP 14:00:00 TS -15.37 158.57 943 38 943 78 956 100 943 38 105 943
SP 15:00:00 TS -15.49 158.52 37 942 77 957 100 943 38 105 943
SP 17:00:00 TS -15.74 158.42 942 35 942 75 959 100 942 37 105 943
SP 18:00:00 TS -15.87 158.37 35 942 75 960 100 942 36 105 943
SP 20:00:00 TS -16.12 158.27 942 35 942 73 961 100 942 35 103 944
SP 21:00:00 TS -16.24 158.20 35 942 72 962 100 942 35 102 945
SP 23:00:00 TS -16.49 158.04 942 35 942 70 964 100 942 34 100 947
SP 1972-03-31 00:00:00 TS -16.62 157.93 35 942 70 965 100 942 34 100 948
SP 02:00:00 TS -16.90 157.66 943 35 943 72 961 100 942 35 98 949
SP 03:00:00 TS -17.05 157.51 35 943 73 960 100 943 35 97 950
SP 05:00:00 TS -17.36 157.18 944 35 944 76 956 100 943 37 95 952
SP 06:00:00 TS -17.52 157.01 35 944 77 955 100 944 37 95 953
SP 08:00:00 TS -17.83 156.67 945 36 945 80 951 98 945 38 93 954
SP 09:00:00 TS -17.99 156.50 37 945 81 950 97 945 38 92 955
SP 11:00:00 TS -18.29 156.16 947 39 947 83 946 95 946 40 90 957
SP 12:00:00 TS -18.44 156.00 40 947 85 945 95 947 41 90 958
SP 14:00:00 TS -18.74 155.69 949 45 949 82 948 95 948 46 88 958
SP 15:00:00 TS -18.89 155.53 47 949 81 950 95 948 47 87 959
SP 17:00:00 TS -19.20 155.21 950 52 950 78 953 95 949 52 85 959
SP 18:00:00 TS -19.35 155.06 55 950 77 955 95 950 53 85 960
SP 20:00:00 TS -19.65 154.74 952 58 952 74 958 93 951 58 85 961
SP 21:00:00 TS -19.79 154.58 60 952 73 960 92 951 59 85 961
SP 23:00:00 TS -20.07 154.28 954 63 954 71 963 90 952 64 85 962
SP 1972-04-01 00:00:00 TS -20.22 154.14 65 954 70 965 90 953 63 85 963
SP 02:00:00 TS -20.51 153.88 955 63 955 69 965 88 954 61 81 964
SP 03:00:00 TS -20.63 153.76 62 955 68 966 87 955 61 80 965
SP 05:00:00 TS -20.88 153.53 957 60 957 67 967 85 956 59 76 967
SP 06:00:00 TS -21.01 153.42 60 957 67 967 85 957 58 75 968
SP 08:00:00 TS -21.27 153.19 959 58 959 66 968 83 958 57 73 969
SP 09:00:00 TS -21.40 153.08 57 959 66 968 82 959 56 72 970
SP 11:00:00 TS -21.65 152.86 961 55 961 65 969 80 960 55 70 972
SP 12:00:00 TS -21.78 152.76 55 961 65 970 80 961 55 70 973
SP 14:00:00 TS -22.02 152.56 964 56 964 63 971 78 963 56 68 974
SP 15:00:00 TS -22.15 152.47 57 964 62 972 77 964 56 67 975
SP 17:00:00 TS -22.41 152.27 967 59 967 60 974 75 966 57 65 977
SP 18:00:00 TS -22.54 152.18 60 967 60 975 75 967 57 65 978
SP 20:00:00 TS -22.79 151.99 970 60 970 58 976 71 969 58 61 980
SP 21:00:00 TS -22.93 151.91 60 971 57 977 70 970 59 60 981
SP 23:00:00 TS -23.22 151.74 974 60 974 55 979 66 972 60 56 983
SP 1972-04-02 00:00:00 TS -23.38 151.65 60 977 55 980 65 974 58 55 985
SP 02:00:00 TS -23.71 151.48 985 56 985 50 982 56 980 55 55 987
SP 03:00:00 TS -23.88 151.41 55 987 48 984 52 983 54 55 988
SP 05:00:00 TS -24.20 151.30 993 51 993 44 987 44 989 51 55 990
SP 06:00:00 TS -24.36 151.27 50 994 42 988 40 993 49 55 991
SP 08:00:00 TS -24.63 151.20 999 46 999 38 991 34 996 46 49 994
SP 09:00:00 TS -24.78 151.19 45 999 36 992 32 997 45 47 996
SP 11:00:00 TS -25.10 151.22 1002 41 1002 32 995 27 1000 42 42 1000
SP 12:00:00 TS -25.29 151.28 40 1002 30 997 25 1002 41 40 1002
SP 14:00:00 TS -25.80 151.57 1004 40 1004 30 997 23 1003 41
SP 15:00:00 TS -26.12 151.78 40 30 997 22 1003 41
SP 18:00:00 TS -27.01 152.35 40 30 997 20 1005 40
SP 21:00:00 TS -27.84 152.71 40 30 997 17 1006 40
SP 23:00:00 TS -28.30 152.84 40 30 997 15 1006 40
SP 1972-04-03 00:00:00 TS -28.46 152.87 40 30 997 15 1007 38
SP 03:00:00 TS -28.70 152.84 35 30 997 15 1007 33
SP 06:00:00 TS -28.87 152.68 30 30 997 15 1008 28
SP 09:00:00 TS -29.21 152.48 25 30 997 15 1008 23
SP 11:00:00 TS -29.55 152.35 21 30 997 15 1008 20
SP 12:00:00 TS -29.76 152.30 20 30 997 15 1009 19
SP 15:00:00 TS -30.55 152.26 17 30 997 15 1008 18
SP 18:00:00 TS -31.54 152.35 15 30 997 15 1007 17
SP 21:00:00 TS -32.70 152.53 30 997 15 1007 15
SP 23:00:00 TS -33.50 152.64 30 997 15 1007 15
SP 1972-04-04 00:00:00 TS -33.90 152.90 30 997 15 1007

Source Information

Agency Information
USA bsh271972.txt
TOKYO
CMA
HKO
NEWDELHI
REUNION
BOM IDCKMSTM0S.csv:Line=7110:EMILY
NADI
WELLINGTON TC_BT_1967_2006.csv:Line=403:EMILY
DS824 aus_area.dat:486:EMILY (NEW C
TD9636 cons_worldwide_trop_cyclone_18710101-19891231-006:Line=8924
TD9635
NEUMANN tracks.sh:Storm=337:EMILY:BSH2772:BM414
MLC

All available IBTrACS Data

SEASON BASIN SUBBASIN ISO_TIME_________ NATURE LAT LON WMO PRES WMO AGENCY DIST2LAND LANDFALL IFLAG USA AGENCY USA ATCF_ID USA LAT USA LON USA WIND USA SSHS BOM LAT BOM LON BOM PRES BOM PRES_METHOD WELLINGTON LAT WELLINGTON LON WELLINGTON WIND WELLINGTON PRES DS824 LAT DS824 LON DS824 STAGE DS824 WIND DS824 PRES TD9636 LAT TD9636 LON TD9636 STAGE TD9636 WIND NEUMANN LAT NEUMANN LON NEUMANN CLASS NEUMANN WIND NEUMANN PRES STORM SPEED STORM DIR
Year degrees north degrees east mb km km degrees north degrees east kts 1 degrees north degrees east mb degrees north degrees east kts mb degrees north degrees east kts mb degrees north degrees east kts degrees north degrees east kts mb kts degrees
1972 SP EA 1972-03-27 23:00:00 NR -11.00 157.50 1000 bom 270 269 ______O___O___ -1 -11.00 157.50 1000 -11.00 157.50 1 30 9 129
1972 SP EA 1972-03-28 00:00:00 TS -11.09 157.61 280 269 O_____P__OP_O_ jtwc_sh SH271972 -11.10 157.60 30 -1 -11.10 157.61 999 -11.10 157.60 TC 30 1000 -11.11 157.59 1 29 -11.00 157.70 TC 30 1000 9 136
1972 SP EA 02:00:00 TS -11.30 157.80 999 bom 275 274 P_____O__PP_P_ SH271972 -11.36 157.81 28 -1 -11.30 157.80 999 -11.31 157.76 TC 31 999 -11.32 157.78 1 28 -11.15 157.86 TC 30 999 8 140
1972 SP EA 03:00:00 TS -11.41 157.89 274 273 P_____P__PP_P_ SH271972 -11.49 157.91 27 -1 -11.40 157.87 998 -11.42 157.84 TC 32 999 -11.42 157.87 1 28 -11.23 157.94 TC 30 999 8 140
1972 SP EA 05:00:00 TS -11.61 158.06 998 bom 274 274 P_____O__PP_P_ SH271972 -11.71 158.11 25 -1 -11.60 158.00 998 -11.61 158.01 TC 34 998 -11.62 158.04 1 27 -11.40 158.11 TC 30 999 8 139
1972 SP EA 06:00:00 TS -11.70 158.15 282 275 O_____P__OP_O_ jtwc_sh SH271972 -11.80 158.20 25 -1 -11.71 158.06 998 -11.70 158.10 TC 35 998 -11.72 158.13 1 27 -11.50 158.20 TC 30 999 7 137
1972 SP EA 08:00:00 TS -11.87 158.31 999 bom 286 280 P_____O__PP_P_ SH271972 -11.94 158.36 25 -1 -11.90 158.20 999 -11.86 158.28 TC 33 998 -11.89 158.29 1 26 -11.71 158.38 TC 30 999 7 135
1972 SP EA 09:00:00 TS -11.95 158.39 280 280 P_____P__PP_P_ SH271972 -11.99 158.43 25 -1 -11.98 158.30 999 -11.93 158.37 TC 32 998 -11.97 158.36 1 25 -11.82 158.47 TC 30 999 6 131
1972 SP EA 11:00:00 TS -12.07 158.54 999 bom 294 289 P_____O__PO_P_ SH271972 -12.07 158.55 25 -1 -12.10 158.50 999 -12.05 158.53 TC 30 998 -12.10 158.50 1 25 -12.02 158.63 TC 30 999 5 129
1972 SP EA 12:00:00 TS -12.12 158.61 289 289 O_____P__OP_O_ jtwc_sh SH271972 -12.10 158.60 25 -1 -12.14 158.58 998 -12.10 158.60 TC 30 999 -12.16 158.56 1 24 -12.10 158.70 TC 30 999 4 130
1972 SP EA 14:00:00 TS -12.20 158.70 997 bom 294 294 P_____O__PP_P_ SH271972 -12.17 158.68 23 -1 -12.20 158.70 997 -12.18 158.69 TC 33 997 -12.25 158.67 1 23 -12.20 158.79 TC 33 997 3 131
1972 SP EA 15:00:00 TS -12.23 158.74 294 290 P_____P__PP_P_ SH271972 -12.21 158.72 22 -1 -12.23 158.74 996 -12.21 158.72 TC 35 997 -12.28 158.72 1 23 -12.23 158.82 TC 35 996 3 135
1972 SP EA 17:00:00 TS -12.29 158.80 995 bom 300 300 P_____O__PP_P_ SH271972 -12.27 158.77 20 -1 -12.30 158.80 995 -12.27 158.77 TC 38 995 -12.34 158.81 1 22 -12.28 158.87 TC 38 994 3 135
1972 SP EA 18:00:00 TS -12.32 158.83 300 296 O_____P__OP_O_ jtwc_sh SH271972 -12.30 158.80 20 -1 -12.33 158.83 994 -12.30 158.80 TC 40 995 -12.37 158.85 1 22 -12.30 158.90 TC 40 994 3 130
1972 SP EA 20:00:00 TS -12.38 158.91 992 bom 307 307 P_____O__PP_P_ SH271972 -12.36 158.87 20 -1 -12.40 158.90 992 -12.36 158.87 TC 41 993 -12.42 158.92 1 21 -12.37 159.00 TC 41 992 3 129
1972 SP EA 21:00:00 TS -12.41 158.94 307 304 P_____P__PP_P_ SH271972 -12.39 158.91 20 -1 -12.43 158.93 991 -12.38 158.90 TC 42 992 -12.45 158.95 1 20 -12.40 159.06 TC 42 992 3 132
1972 SP EA 23:00:00 TS -12.47 159.01 990 bom 314 314 P_____O__PO_P_ SH271972 -12.46 158.97 20 -1 -12.50 159.00 990 -12.46 158.97 TC 44 990 -12.50 159.00 1 20 -12.47 159.16 TC 44 990 3 131
1972 SP EA 1972-03-29 00:00:00 TS -12.49 159.04 314 311 O_____P_OOP_O_ jtwc_sh SH271972 -12.50 159.00 20 -1 -12.52 159.03 988 -12.00 159.00 40 990 -12.50 159.00 TC 45 990 -12.54 159.03 1 20 -12.50 159.20 TC 45 990 2 140
1972 SP EA 02:00:00 TS -12.57 159.09 985 bom 322 322 P_____O_PPP_P_ SH271972 -12.60 159.04 20 -1 -12.60 159.10 985 -12.14 159.01 42 988 -12.63 159.08 TC 50 986 -12.62 159.08 1 20 -12.56 159.25 TC 50 986 3 150
1972 SP EA 03:00:00 TS -12.61 159.11 322 322 P_____P_PPP_P_ SH271972 -12.65 159.06 20 -1 -12.70 159.14 983 -12.20 159.02 43 987 -12.71 159.11 TC 52 985 -12.66 159.10 1 20 -12.59 159.27 TC 52 985 3 158
1972 SP EA 05:00:00 TS -12.71 159.14 980 bom 333 331 P_____O_PPP_P_ SH271972 -12.75 159.09 20 -1 -12.90 159.20 980 -12.33 159.02 46 985 -12.85 159.18 TC 57 981 -12.74 159.14 1 20 -12.66 159.29 TC 57 981 3 164
1972 SP EA 06:00:00 TS -12.76 159.16 342 342 O_____P_POP_O_ jtwc_sh SH271972 -12.80 159.10 20 -1 -12.92 159.21 978 -12.39 159.02 47 985 -12.90 159.20 TC 60 980 -12.79 159.15 1 20 -12.70 159.30 TC 60 980 2 162
1972 SP EA 08:00:00 TS -12.83 159.17 975 bom 342 342 P_____O_PPP_P_ SH271972 -12.87 159.13 20 -1 -12.90 159.20 975 -12.51 159.02 50 983 -12.95 159.22 TC 63 976 -12.87 159.18 1 20 -12.80 159.34 TC 65 976 2 0
1972 SP EA 09:00:00 TS -12.86 159.18 353 353 P_____P_PPP_P_ SH271972 -12.91 159.15 20 -1 -12.93 159.20 973 -12.56 159.02 51 982 -12.96 159.22 TC 65 975 -12.91 159.19 1 20 -12.85 159.36 TC 67 975 2 0
1972 SP EA 11:00:00 TS -12.93 159.20 970 bom 353 353 P_____O_PPO_P_ SH271972 -12.97 159.18 20 -1 -13.00 159.20 970 -12.66 159.01 53 980 -12.99 159.21 TC 68 971 -13.00 159.20 1 20 -12.95 159.39 TC 72 971 2 176
1972 SP EA 12:00:00 TS -12.97 159.20 364 364 O_____P_OOP_O_ jtwc_sh SH271972 -13.00 159.20 20 -1 -13.03 159.20 968 -12.70 159.00 55 980 -13.00 159.20 TC 70 970 -13.03 159.21 1 20 -13.00 159.40 TC 75 970 2 0
1972 SP EA 14:00:00 TS -13.03 159.22 965 bom 364 364 P_____O_PPP_P_ SH271972 -13.06 159.24 21 -1 -13.10 159.20 965 -12.77 158.97 56 978 -13.05 159.20 TC 75 966 -13.08 159.24 1 22 -13.07 159.41 TC 78 966 2 0
1972 SP EA 15:00:00 TS -13.06 159.22 375 375 P_____P_PPP_P_ SH271972 -13.09 159.26 22 -1 -13.13 159.20 963 -12.80 158.96 57 977 -13.08 159.20 TC 77 965 -13.11 159.25 1 23 -13.10 159.41 TC 80 965 2 0
1972 SP EA 17:00:00 TS -13.12 159.22 960 bom 375 375 P_____O_PPP_P_ SH271972 -13.16 159.29 24 -1 -13.20 159.20 960 -12.87 158.92 59 975 -13.15 159.20 TC 82 961 -13.17 159.26 1 25 -13.16 159.40 TC 83 962 2 0
1972 SP EA 18:00:00 TS -13.16 159.22 384 384 O_____P_POP_O_ jtwc_sh SH271972 -13.20 159.30 25 -1 -13.23 159.20 958 -12.91 158.90 60 975 -13.20 159.20 TC 85 960 -13.21 159.26 1 25 -13.20 159.40 TC 85 961 3 191
1972 SP EA 20:00:00 TS -13.25 159.22 956 bom 392 392 P_____O_PPP_P_ SH271972 -13.30 159.29 26 -1 -13.30 159.20 956 -13.00 158.86 61 973 -13.30 159.22 TC 86 957 -13.30 159.25 1 27 -13.26 159.42 TC 88 958 3 0
1972 SP EA 21:00:00 TS -13.31 159.21 392 392 P_____P_PPP_P_ SH271972 -13.36 159.28 27 -1 -13.35 159.21 955 -13.06 158.84 62 972 -13.36 159.22 TC 87 956 -13.36 159.24 1 28 -13.30 159.42 TC 90 957 4 191
1972 SP EA 23:00:00 TS -13.45 159.19 953 bom 409 409 P_____O_PPO_P_ SH271972 -13.51 159.23 29 -1 -13.50 159.20 953 -13.21 158.81 64 970 -13.51 159.22 TC 89 954 -13.50 159.20 1 30 -13.42 159.42 TC 93 954 5 190
1972 SP EA 1972-03-30 00:00:00 TS -13.54 159.16 409 409 O_____P_OOP_O_ jtwc_sh SH271972 -13.60 159.20 30 -1 -13.59 159.17 952 -13.30 158.80 65 970 -13.60 159.20 TC 90 953 -13.59 159.17 1 30 -13.50 159.40 TC 95 953 6 197
1972 SP EA 02:00:00 TS -13.76 159.10 950 bom 443 443 P_____O_PPP_P_ SH271972 -13.80 159.12 31 -1 -13.80 159.10 950 -13.55 158.81 67 967 -13.80 159.12 TC 91 951 -13.80 159.09 1 32 -13.73 159.32 TC 96 951 7 197
1972 SP EA 03:00:00 TS -13.88 159.06 452 452 P_____P_PPP_P_ SH271972 -13.92 159.07 32 -1 -13.93 159.07 949 -13.69 158.82 68 966 -13.92 159.07 TC 92 950 -13.92 159.05 1 33 -13.87 159.27 TC 97 950 8 197
1972 SP EA 05:00:00 TS -14.15 158.97 948 bom 486 486 P_____O_PPP_P_ SH271972 -14.17 158.96 34 0 -14.20 159.00 948 -14.01 158.84 71 963 -14.17 158.96 TC 94 948 -14.18 158.95 1 35 -14.16 159.16 TC 99 948 9 198
1972 SP EA 06:00:00 TS -14.29 158.93 501 501 O_____P_POP_O_ jtwc_sh SH271972 -14.30 158.90 35 0 -14.33 158.94 947 -14.17 158.84 72 962 -14.30 158.90 TC 95 948 -14.31 158.89 1 35 -14.30 159.10 TC 100 948 9 198
1972 SP EA 08:00:00 TS -14.56 158.83 946 bom 535 535 P_____O_PPP_P_ SH271972 -14.56 158.80 36 0 -14.60 158.80 946 -14.52 158.85 75 959 -14.56 158.80 TC 96 946 -14.58 158.77 1 37 -14.54 159.00 TC 101 946 9 198
1972 SP EA 09:00:00 TS -14.70 158.78 544 544 P_____P_PPP_P_ SH271972 -14.69 158.75 37 0 -14.73 158.73 945 -14.69 158.85 76 958 -14.70 158.75 TC 97 946 -14.72 158.72 1 38 -14.65 158.95 TC 102 946 9 198
1972 SP EA 11:00:00 TS -14.97 158.69 944 bom 578 578 P_____O_PPO_P_ SH271972 -14.96 158.65 39 0 -15.00 158.60 944 -15.04 158.82 78 956 -14.97 158.65 TC 99 944 -15.00 158.60 2 40 -14.88 158.85 TC 104 944 9 198
1972 SP EA 12:00:00 TS -15.11 158.65 593 593 O_____P_OOP_O_ jtwc_sh SH271972 -15.10 158.60 40 0 -15.14 158.56 943 -15.20 158.80 80 955 -15.10 158.60 TC 100 944 -15.12 158.57 2 39 -15.00 158.80 TC 105 944 8 197
1972 SP EA 14:00:00 TS -15.37 158.57 943 bom 620 620 P_____O_PPP_P_ SH271972 -15.37 158.51 38 0 -15.40 158.50 943 -15.48 158.74 78 956 -15.34 158.51 TC 100 943 -15.36 158.50 2 38 -15.26 158.70 TC 105 943 8 198
1972 SP EA 15:00:00 TS -15.49 158.52 636 636 P_____P_PPP_P_ SH271972 -15.51 158.46 37 0 -15.50 158.44 942 -15.61 158.71 77 957 -15.45 158.46 TC 100 943 -15.48 158.47 2 38 -15.40 158.65 TC 105 943 8 201
1972 SP EA 17:00:00 TS -15.74 158.42 942 bom 660 660 P_____O_PPP_P_ SH271972 -15.77 158.36 35 0 -15.70 158.30 942 4 -15.87 158.61 75 959 -15.68 158.36 TC 100 942 -15.73 158.40 2 37 -15.67 158.55 TC 105 943 8 201
1972 SP EA 18:00:00 TS -15.87 158.37 679 679 O_____P_POP_O_ jtwc_sh SH271972 -15.90 158.30 35 0 -15.83 158.26 942 -16.00 158.55 75 960 -15.80 158.30 TC 100 942 -15.85 158.35 2 36 -15.80 158.50 TC 105 943 8 202
1972 SP EA 20:00:00 TS -16.12 158.27 942 bom 703 703 P_____O_PPP_P_ SH271972 -16.13 158.20 35 0 -16.10 158.20 942 -16.26 158.40 73 961 -16.05 158.17 TC 100 942 -16.10 158.24 2 35 -16.03 158.44 TC 103 944 8 202
1972 SP EA 21:00:00 TS -16.24 158.20 719 719 P_____P_PPP_P_ SH271972 -16.24 158.14 35 0 -16.24 158.16 942 -16.39 158.32 72 962 -16.18 158.09 TC 100 942 -16.23 158.17 2 35 -16.14 158.40 TC 102 945 9 210
1972 SP EA 23:00:00 TS -16.49 158.04 942 bom 758 756 P_____O_PPO_P_ SH271972 -16.47 158.00 35 0 -16.50 158.00 942 -16.66 158.12 70 964 -16.46 157.91 TC 100 942 -16.50 158.00 2 34 -16.37 158.29 TC 100 947 9 214
1972 SP EA 1972-03-31 00:00:00 TS -16.62 157.93 764 758 O_____P_OOP_O_ jtwc_sh SH271972 -16.60 157.90 35 0 -16.60 157.85 942 -16.80 158.00 70 965 -16.60 157.80 TC 100 942 -16.64 157.89 2 34 -16.50 158.20 TC 100 948 11 222
1972 SP EA 02:00:00 TS -16.90 157.66 943 bom 765 765 P_____O_PPP_P_ SH271972 -16.88 157.65 35 0 -16.80 157.50 943 -17.11 157.73 72 961 -16.89 157.53 TC 100 942 -16.93 157.62 2 35 -16.78 157.92 TC 98 949 12 224
1972 SP EA 03:00:00 TS -17.05 157.51 777 772 P_____P_PPP_P_ SH271972 -17.03 157.50 35 0 -16.95 157.36 943 -17.27 157.58 73 960 -17.04 157.38 TC 100 943 -17.08 157.47 2 35 -16.94 157.75 TC 97 950 13 224
1972 SP EA 05:00:00 TS -17.36 157.18 944 bom 785 785 P_____O_PPP_P_ SH271972 -17.34 157.17 35 0 -17.30 157.10 944 -17.60 157.24 76 956 -17.35 157.06 TC 100 943 -17.38 157.15 2 37 -17.24 157.38 TC 95 952 13 225
1972 SP EA 06:00:00 TS -17.52 157.01 800 795 O_____P_POP_O_ jtwc_sh SH271972 -17.50 157.00 35 0 -17.47 156.94 944 -17.76 157.07 77 955 -17.50 156.90 TC 100 944 -17.53 156.98 2 37 -17.40 157.20 TC 95 953 14 226
1972 SP EA 08:00:00 TS -17.83 156.67 945 bom 809 778 P_____O_PPP_P_ SH271972 -17.80 156.64 36 0 -17.80 156.60 945 -18.08 156.71 80 951 -17.79 156.61 TC 98 945 -17.84 156.63 2 38 -17.70 156.90 TC 93 954 13 226
1972 SP EA 09:00:00 TS -17.99 156.50 778 732 P_____P_PPP_P_ SH271972 -17.95 156.45 37 0 -17.97 156.43 945 -18.24 156.53 81 950 -17.94 156.46 TC 97 945 -17.99 156.45 2 38 -17.85 156.75 TC 92 955 13 226
1972 SP EA 11:00:00 TS -18.29 156.16 947 bom 732 709 P_____O_PPO_P_ SH271972 -18.25 156.08 39 0 -18.30 156.10 947 -18.55 156.17 83 946 -18.24 156.16 TC 95 946 -18.30 156.10 2 40 -18.15 156.45 TC 90 957 13 226
1972 SP EA 12:00:00 TS -18.44 156.00 709 663 O_____P_OOP_O_ jtwc_sh SH271972 -18.40 155.90 40 0 -18.44 155.96 947 -18.70 156.00 85 945 -18.40 156.00 TC 95 947 -18.45 155.94 2 41 -18.30 156.30 TC 90 958 13 225
1972 SP EA 14:00:00 TS -18.74 155.69 949 bom 663 641 P_____O_PPP_P_ SH271972 -18.70 155.59 45 0 -18.70 155.70 949 -18.99 155.69 82 948 -18.73 155.67 TC 95 948 -18.75 155.60 2 46 -18.60 155.97 TC 88 958 13 225
1972 SP EA 15:00:00 TS -18.89 155.53 633 587 P_____P_PPP_P_ SH271972 -18.85 155.44 47 0 -18.86 155.54 949 -19.13 155.54 81 950 -18.90 155.50 TC 95 948 -18.91 155.44 2 47 -18.75 155.80 TC 87 959 13 224
1972 SP EA 17:00:00 TS -19.20 155.21 950 bom 587 572 P_____O_PPP_P_ SH271972 -19.15 155.15 52 0 -19.20 155.20 950 -19.40 155.25 78 953 -19.24 155.16 TC 95 949 -19.21 155.11 2 52 -19.05 155.46 TC 85 959 13 224
1972 SP EA 18:00:00 TS -19.35 155.06 565 526 O_____P_POP_O_ jtwc_sh SH271972 -19.30 155.00 55 0 -19.37 155.03 950 -19.52 155.11 77 955 -19.40 155.00 TC 95 950 -19.36 154.95 2 53 -19.20 155.30 TC 85 960 13 225
1972 SP EA 20:00:00 TS -19.65 154.74 952 bom 518 496 P_____O_PPP_P_ SH271972 -19.60 154.66 58 0 -19.70 154.70 952 -19.77 154.83 74 958 -19.71 154.70 TC 93 951 -19.66 154.64 2 58 -19.51 154.98 TC 85 961 13 226
1972 SP EA 21:00:00 TS -19.79 154.58 496 457 P_____P_PPP_P_ SH271972 -19.75 154.48 60 0 -19.83 154.53 952 -19.88 154.70 73 960 -19.86 154.55 TC 92 951 -19.81 154.49 2 59 -19.66 154.83 TC 85 961 12 226
1972 SP EA 23:00:00 TS -20.07 154.28 954 bom 451 435 P_____O_PPO_P_ SH271972 -20.05 154.15 63 0 -20.10 154.20 954 -20.10 154.43 71 963 -20.15 154.28 TC 90 952 -20.10 154.20 4 64 -19.96 154.54 TC 85 962 12 224
1972 SP EA 1972-04-01 00:00:00 TS -20.22 154.14 427 390 O_____P_OPP_O_ jtwc_sh SH271972 -20.20 154.00 65 1 -20.30 154.05 954 -20.20 154.30 70 965 -20.29 154.14 TC 90 953 -20.25 154.06 4 63 -20.10 154.40 TC 85 963 12 221
1972 SP EA 02:00:00 TS -20.51 153.88 955 bom 390 375 P_____O_PPP_P_ SH271972 -20.51 153.74 63 0 -20.70 153.80 955 -20.36 154.03 69 965 -20.56 153.89 TC 88 954 -20.54 153.80 4 61 -20.37 154.15 TC 81 964 11 221
1972 SP EA 03:00:00 TS -20.63 153.76 375 331 P_____P_PPP_P_ SH271972 -20.66 153.62 62 0 -20.82 153.69 955 -20.42 153.89 68 966 -20.70 153.76 TC 87 955 -20.68 153.68 4 61 -20.50 154.03 TC 80 965 10 221
1972 SP EA 05:00:00 TS -20.88 153.53 957 bom 331 316 P_____O_PPP_P_ SH271972 -20.96 153.40 60 0 -21.00 153.50 957 -20.55 153.63 67 967 -20.97 153.52 TC 85 956 -20.97 153.44 4 59 -20.76 153.81 TC 76 967 10 220
1972 SP EA 06:00:00 TS -21.01 153.42 316 287 O_____P_POP_O_ jtwc_sh SH271972 -21.10 153.30 60 0 -21.13 153.41 957 -20.61 153.50 67 967 -21.10 153.40 TC 85 957 -21.11 153.33 4 58 -20.90 153.70 TC 75 968 10 219
1972 SP EA 08:00:00 TS -21.27 153.19 959 bom 281 267 P_____O_PPP_P_ SH271972 -21.37 153.09 58 0 -21.40 153.20 959 -20.75 153.26 66 968 -21.38 153.15 TC 83 958 -21.39 153.11 4 57 -21.20 153.46 TC 73 969 10 219
1972 SP EA 09:00:00 TS -21.40 153.08 267 238 P_____P_PPP_P_ SH271972 -21.51 152.99 57 0 -21.54 153.06 959 -20.82 153.14 66 968 -21.51 153.03 TC 82 959 -21.53 153.00 4 56 -21.36 153.34 TC 72 970 10 219
1972 SP EA 11:00:00 TS -21.65 152.86 961 bom 234 220 P_____O_PPO_P_ SH271972 -21.77 152.80 55 0 -21.80 152.80 961 -21.00 152.91 65 969 -21.77 152.80 TC 80 960 -21.80 152.80 2 55 -21.66 153.11 TC 70 972 10 218
1972 SP EA 12:00:00 TS -21.78 152.76 220 193 O_____P_OOP_O_ jtwc_sh SH271972 -21.90 152.70 55 0 -21.90 152.72 961 -21.10 152.80 65 970 -21.90 152.70 TC 80 961 -21.93 152.69 2 55 -21.80 153.00 TC 70 973 9 216
1972 SP EA 14:00:00 TS -22.02 152.56 964 bom 193 180 P_____O_PPP_P_ SH271972 -22.17 152.49 56 0 -22.10 152.60 964 -21.37 152.57 63 971 -22.13 152.52 TC 78 963 -22.17 152.48 2 56 -22.04 152.79 TC 68 974 9 216
1972 SP EA 15:00:00 TS -22.15 152.47 177 154 P_____P_PPP_P_ SH271972 -22.31 152.39 57 0 -22.23 152.51 964 -21.52 152.46 62 972 -22.24 152.44 TC 77 964 -22.29 152.38 2 56 -22.16 152.68 TC 67 975 10 215
1972 SP EA 17:00:00 TS -22.41 152.27 967 bom 154 143 P_____O_PPP_P_ SH271972 -22.57 152.19 59 0 -22.50 152.30 967 -21.85 152.25 60 974 -22.47 152.28 TC 75 966 -22.53 152.18 2 57 -22.38 152.49 TC 65 977 9 214
1972 SP EA 18:00:00 TS -22.54 152.18 143 122 O_____P_POP_O_ jtwc_sh SH271972 -22.70 152.10 60 0 -22.60 152.20 967 -22.03 152.15 60 975 -22.60 152.20 TC 75 967 -22.66 152.09 2 57 -22.50 152.40 TC 65 978 9 214
1972 SP EA 20:00:00 TS -22.79 151.99 970 bom 122 112 P_____O_PPP_P_ SH271972 -22.93 151.91 60 0 -22.80 152.00 970 -22.38 151.98 58 976 -22.87 152.00 TC 71 969 -22.90 151.92 2 58 -22.74 152.23 TC 61 980 9 213
1972 SP EA 21:00:00 TS -22.93 151.91 112 97 P_____P_PPP_P_ SH271972 -23.04 151.83 60 0 -22.94 151.91 971 -22.56 151.90 57 977 -23.02 151.90 TC 70 970 -23.03 151.84 2 59 -22.87 152.14 TC 60 981 10 209
1972 SP EA 23:00:00 TS -23.22 151.74 974 bom 88 75 P_____O_PPO_P_ SH271972 -23.27 151.67 60 0 -23.30 151.70 974 -22.92 151.76 55 979 -23.33 151.70 TC 66 972 -23.30 151.70 2 60 -23.15 151.98 TC 56 983 10 207
1972 SP EA 1972-04-02 00:00:00 TS -23.38 151.65 75 37 O_____P_OOP_O_ jtwc_sh SH271972 -23.40 151.60 60 0 -23.53 151.56 977 -23.10 151.70 55 980 -23.50 151.60 TC 65 974 -23.43 151.61 2 58 -23.30 151.90 TC 55 985 11 206
1972 SP EA 02:00:00 TS -23.71 151.48 985 bom 37 15 P_____O_PPP_P_ SH271972 -23.67 151.47 56 0 -24.00 151.30 985 -23.42 151.60 50 982 -23.88 151.39 TC 56 980 -23.68 151.43 2 55 -23.66 151.71 TC 55 987 11 204
1972 SP EA 03:00:00 TS -23.88 151.41 15 0 P_____P_PPP_P_ SH271972 -23.82 151.42 55 0 -24.19 151.21 987 -23.58 151.57 48 984 -24.07 151.30 TC 52 983 -23.81 151.35 2 54 -23.85 151.61 TC 55 988 10 199
1972 SP EA 05:00:00 TS -24.20 151.30 993 bom 0 0 P_____O_PPP_P_ SH271972 -24.13 151.33 51 0 -24.50 151.10 993 -23.89 151.52 44 987 -24.44 151.15 TC 44 989 -24.10 151.22 2 51 -24.23 151.46 TC 55 990 10 195
1972 SP EA 06:00:00 TS -24.36 151.27 0 0 O_____P_POP_O_ jtwc_sh SH271972 -24.30 151.30 50 0 -24.61 151.08 994 -24.05 151.50 42 988 -24.60 151.10 TC 40 993 -24.25 151.18 2 49 -24.40 151.40 TC 55 991 9 191
1972 SP EA 08:00:00 TS -24.63 151.20 999 bom 0 0 P_____O_PPP_P_ SH271972 -24.61 151.18 46 0 -24.80 151.10 999 -24.36 151.49 38 991 -24.75 151.01 TC 34 996 -24.59 151.13 2 46 -24.70 151.35 TC 49 994 9 189
1972 SP EA 09:00:00 TS -24.78 151.19 0 0 P_____P_PPP_P_ SH271972 -24.78 151.13 45 0 -24.94 151.13 999 -24.52 151.48 36 992 -24.82 150.99 TC 32 997 -24.78 151.13 2 45 -24.84 151.35 TC 47 996 9 178
1972 SP EA 11:00:00 TS -25.10 151.22 1002 bom 0 0 P_____O_PPO_P_ SH271972 -25.17 151.13 41 0 -25.20 151.20 1002 -24.84 151.49 32 995 -25.02 151.08 TC 27 1000 -25.20 151.20 2 42 -25.08 151.38 TC 42 1000 10 170
1972 SP EA 12:00:00 TS -25.29 151.28 0 0 O_____P_OOP_O_ jtwc_sh SH271972 -25.40 151.20 40 0 -25.27 151.24 1002 -25.00 151.50 30 997 -25.20 151.20 TC 25 1002 -25.47 151.31 2 41 -25.20 151.40 TC 40 1002 16 156
1972 SP EA 14:00:00 TS -25.80 151.57 1004 bom 0 0 P_____O_PPP___ SH271972 -25.95 151.56 40 0 -25.30 151.30 1004 -25.30 151.50 30 997 -25.86 151.68 TC 23 1003 -26.07 151.62 2 41 TC 19 152
1972 SP EA 15:00:00 TS -26.12 151.78 0 0 P_______PPP___ SH271972 -26.26 151.79 40 0 -25.45 151.51 30 997 -26.25 151.97 TC 22 1003 -26.39 151.81 2 41 TC 21 150
1972 SP EA 18:00:00 TS -27.01 152.35 0 0 O_______POP___ jtwc_sh SH271972 -27.20 152.50 40 0 -25.92 151.55 30 997 -27.40 152.80 TC 20 1005 -27.35 152.41 2 40 19 154
1972 SP EA 21:00:00 TS -27.84 152.71 0 0 P_______PPP___ SH271972 -28.17 152.93 40 0 -26.42 151.61 30 997 -28.21 153.12 TC 17 1006 -28.23 152.95 2 40 16 161
1972 SP EA 23:00:00 TS -28.30 152.84 0 0 P_______PPO___ SH271972 -28.70 153.08 40 0 -26.80 151.67 30 997 -28.58 153.19 TC 15 1006 -28.70 153.20 2 40 13 168
1972 SP EA 1972-04-03 00:00:00 TS -28.46 152.87 0 0 O_______OOP___ jtwc_sh SH271972 -28.90 153.10 40 0 -27.00 151.70 30 997 -28.70 153.20 TC 15 1007 -28.82 153.23 2 38 6 183
1972 SP EA 03:00:00 TS -28.70 152.84 0 0 P_______PPP___ SH271972 -29.08 152.98 35 0 -27.63 151.79 30 997 -28.72 153.29 TC 15 1007 -29.01 153.15 2 33 4 201
1972 SP EA 06:00:00 TS -28.87 152.68 0 0 O_______POP___ jtwc_sh SH271972 -29.10 152.70 30 -1 -28.34 151.91 30 997 -28.70 153.20 TC 15 1008 -29.09 152.90 2 28 6 211
1972 SP EA 09:00:00 TS -29.21 152.48 0 0 P_______PPP___ SH271972 -29.29 152.49 25 -1 -29.12 152.04 30 997 -29.09 152.79 TC 15 1008 -29.25 152.60 2 23 9 203
1972 SP EA 11:00:00 TS -29.55 152.35 0 0 P_______PPO___ SH271972 -29.53 152.36 21 -1 -29.70 152.15 30 997 -29.48 152.50 TC 15 1008 -29.50 152.40 1 20 12 195
1972 SP EA 12:00:00 TS -29.76 152.30 0 0 O_______OOP___ jtwc_sh SH271972 -29.70 152.30 20 -1 -30.00 152.20 30 997 -29.70 152.40 TC 15 1009 -29.68 152.31 1 19 15 185
1972 SP EA 15:00:00 TS -30.55 152.26 0 0 P_______PPP___ SH271972 -30.45 152.14 17 -1 -30.97 152.38 30 997 -30.34 152.42 TC 15 1008 -30.45 152.11 1 18 18 179
1972 SP EA 18:00:00 TS -31.54 152.35 0 0 O_______POP___ jtwc_sh SH271972 -31.40 152.00 15 -1 -32.01 152.57 30 997 -31.20 152.60 TC 15 1007 -31.48 151.97 1 17 22 174
1972 SP EA 21:00:00 TS -32.70 152.53 28 28 ________PPP___ SH271972 -1 -33.09 152.78 30 997 -32.32 152.73 TC 15 1007 -32.67 151.86 1 15 24 173
1972 SP EA 23:00:00 TS -33.50 152.64 94 94 ________PPO___ SH271972 -1 -33.83 152.93 30 997 -33.17 152.78 TC 15 1007 -33.50 151.80 1 15 25 166
1972 SP EA 1972-04-04 00:00:00 TS -33.90 152.90 136 ________OO____ -1 -34.20 153.00 30 997 -33.60 152.80 TC 15 1007 1 27 152